createdAt,value
2022-08-17T05:45:54.438Z,29.58
2022-08-17T05:51:17.814Z,27.92
2022-08-17T05:56:30.111Z,29.67
2022-08-17T06:01:49.276Z,29.52
2022-08-17T06:06:59.305Z,29.85
2022-08-17T06:12:26.060Z,27.05
2022-08-17T06:17:31.308Z,28.42
2022-08-17T06:22:37.419Z,28.35
2022-08-17T06:27:45.323Z,27.38
2022-08-17T06:32:51.543Z,27.30
2022-08-17T06:38:04.426Z,28.58
2022-08-17T06:43:26.851Z,27.60
2022-08-17T06:48:38.861Z,28.15
2022-08-17T06:53:46.569Z,28.27
2022-08-17T06:58:49.988Z,28.75
2022-08-17T07:04:00.475Z,28.92
2022-08-17T07:09:18.178Z,30.88
2022-08-17T07:14:32.088Z,26.73
2022-08-17T07:19:40.646Z,27.88
2022-08-17T07:24:50.953Z,28.33
2022-08-17T07:29:58.154Z,29.00
2022-08-17T07:35:16.106Z,30.58
2022-08-17T07:40:30.012Z,30.00
2022-08-17T07:45:52.396Z,29.55
2022-08-17T07:50:57.299Z,28.73
2022-08-17T07:56:00.482Z,28.15
2022-08-17T08:01:07.632Z,26.95
2022-08-17T08:06:22.346Z,26.73
2022-08-17T08:11:33.466Z,24.40
2022-08-17T08:16:36.793Z,23.30
2022-08-17T08:21:48.102Z,24.15
2022-08-17T08:27:04.264Z,27.55
2022-08-17T08:32:16.395Z,25.42
2022-08-17T08:37:39.085Z,21.67
2022-08-17T08:42:53.614Z,19.92
2022-08-17T08:48:22.709Z,19.98
2022-08-17T08:53:37.274Z,21.77
2022-08-17T08:58:50.457Z,21.05
2022-08-17T09:04:24.734Z,21.48
2022-08-17T09:09:42.824Z,20.50
2022-08-17T09:14:55.498Z,20.75
2022-08-17T09:20:04.841Z,17.35
2022-08-17T09:25:11.939Z,18.05
2022-08-17T09:30:15.840Z,18.23
2022-08-17T09:35:22.800Z,21.45
2022-08-17T09:40:32.052Z,20.30
2022-08-17T09:45:42.609Z,20.15
2022-08-17T09:51:03.798Z,17.95
2022-08-17T09:56:27.253Z,17.58
2022-08-17T10:01:36.793Z,16.65
2022-08-17T10:06:49.243Z,15.95
2022-08-17T10:12:17.787Z,16.70
2022-08-17T10:17:28.886Z,17.73
2022-08-17T10:22:58.056Z,16.48
2022-08-17T10:28:11.740Z,17.08
2022-08-17T10:33:27.701Z,17.50
2022-08-17T10:38:40.571Z,19.30
2022-08-17T10:44:36.777Z,19.02
2022-08-17T10:49:30.286Z,20.20
2022-08-17T10:54:58.742Z,18.85
2022-08-17T11:00:08.188Z,19.15
2022-08-17T11:05:41.508Z,18.90
2022-08-17T11:11:15.794Z,16.45
2022-08-17T11:16:39.063Z,18.20
2022-08-17T11:22:02.270Z,17.10
2022-08-17T11:27:12.133Z,18.55
2022-08-17T11:32:33.503Z,17.50
2022-08-17T11:37:56.310Z,19.77
2022-08-17T11:43:13.573Z,19.83
2022-08-17T11:48:44.873Z,20.15
2022-08-17T11:54:30.603Z,21.70
2022-08-17T12:00:10.595Z,22.67
2022-08-17T12:05:32.384Z,24.33
2022-08-17T12:10:49.333Z,24.13
2022-08-17T12:15:54.962Z,25.52
2022-08-17T12:21:18.324Z,25.52
2022-08-17T12:26:26.092Z,26.08
2022-08-17T12:31:32.491Z,26.58
2022-08-17T12:36:37.627Z,28.27
2022-08-17T12:41:43.923Z,29.42
2022-08-17T12:46:53.247Z,28.55
2022-08-17T12:52:10.240Z,27.98
2022-08-17T12:57:16.273Z,29.00
2022-08-17T13:02:40.443Z,30.40
2022-08-17T13:07:46.599Z,30.80
2022-08-17T13:12:52.525Z,31.17
2022-08-17T13:18:03.917Z,24.65
2022-08-17T13:23:20.419Z,24.20
2022-08-17T13:28:35.692Z,21.95
2022-08-17T13:33:44.562Z,22.13
2022-08-17T13:38:51.144Z,23.15
2022-08-17T13:43:54.453Z,24.55
2022-08-17T13:49:04.851Z,24.90
2022-08-17T13:54:24.243Z,25.23
2022-08-17T13:59:53.622Z,25.83
2022-08-17T14:05:00.584Z,25.25
2022-08-17T14:10:09.222Z,24.02
2022-08-17T14:15:14.204Z,25.58
2022-08-17T14:20:20.330Z,24.38
2022-08-17T14:25:28.423Z,23.17
2022-08-17T14:30:32.012Z,24.10
2022-08-17T14:35:35.988Z,23.17
2022-08-17T14:40:41.039Z,24.10
2022-08-17T14:45:44.573Z,23.00
2022-08-17T14:50:48.024Z,23.50
2022-08-17T14:55:53.152Z,23.70
2022-08-17T15:00:56.592Z,22.55
2022-08-17T15:05:59.892Z,22.48
2022-08-17T15:11:04.893Z,22.77
2022-08-17T15:16:09.870Z,22.52
2022-08-17T15:21:14.810Z,23.10
2022-08-17T15:26:22.904Z,22.63
2022-08-17T15:31:31.704Z,21.75
2022-08-17T15:36:35.839Z,21.48
2022-08-17T15:41:40.368Z,22.08
2022-08-17T15:46:43.579Z,21.60
2022-08-17T15:51:47.108Z,21.98
2022-08-17T15:56:52.021Z,22.67
2022-08-17T16:03:14.447Z,20.35
2022-08-17T16:07:26.466Z,19.65
2022-08-17T16:12:31.333Z,20.13
2022-08-17T16:17:39.790Z,19.45
2022-08-17T16:22:46.847Z,18.88
2022-08-17T16:27:53.534Z,20.05
2022-08-17T16:32:59.573Z,19.38
2022-08-17T16:38:02.954Z,19.95
2022-08-17T16:43:10.714Z,19.13
2022-08-17T16:48:15.611Z,19.13
2022-08-17T16:53:20.164Z,16.55
2022-08-17T16:58:24.692Z,15.88
2022-08-17T17:03:30.570Z,16.48
2022-08-17T17:08:42.133Z,16.33
2022-08-17T17:13:54.384Z,16.83
2022-08-17T17:19:07.811Z,15.85
2022-08-17T17:24:16.522Z,16.40
2022-08-17T17:29:35.798Z,16.10
2022-08-17T17:35:04.558Z,14.32
2022-08-17T17:40:14.720Z,13.48
2022-08-17T17:45:23.324Z,13.60
2022-08-17T17:50:34.002Z,13.38
2022-08-17T17:55:47.540Z,15.50
2022-08-17T18:01:17.655Z,15.88
2022-08-17T18:06:32.399Z,14.77
2022-08-17T18:11:55.074Z,16.67
2022-08-17T18:17:03.968Z,17.15
2022-08-17T18:22:14.221Z,16.58
2022-08-17T18:27:24.078Z,14.85
2022-08-17T18:32:35.676Z,15.23
2022-08-17T18:37:44.902Z,17.73
2022-08-17T18:43:02.797Z,15.13
2022-08-17T18:48:18.654Z,16.58
2022-08-17T18:53:39.696Z,15.15
2022-08-17T18:58:43.272Z,14.13
2022-08-17T19:03:48.040Z,12.30
2022-08-17T19:08:51.387Z,12.73
2022-08-17T19:14:00.834Z,12.20
2022-08-17T19:19:14.508Z,13.27
2022-08-17T19:24:20.762Z,13.88
2022-08-17T19:29:31.240Z,14.27
2022-08-17T19:34:44.725Z,14.07
2022-08-17T19:39:56.091Z,13.63
2022-08-17T19:45:10.438Z,13.18
2022-08-17T19:50:22.153Z,15.20
2022-08-17T19:55:32.867Z,13.05
2022-08-17T20:00:40.791Z,13.98
2022-08-17T20:06:11.664Z,13.27
2022-08-17T20:11:24.700Z,13.40
2022-08-17T20:16:28.085Z,12.75
2022-08-17T20:21:38.067Z,11.95
2022-08-17T20:26:58.174Z,11.40
2022-08-17T20:32:26.365Z,10.93
2022-08-17T20:37:33.733Z,9.48
2022-08-17T20:42:37.762Z,10.95
2022-08-17T20:48:07.407Z,9.32
2022-08-17T20:53:13.512Z,11.70
2022-08-17T20:58:47.218Z,9.95
2022-08-17T21:03:52.670Z,10.57
2022-08-17T21:09:19.751Z,10.48
2022-08-17T21:14:58.657Z,10.38
2022-08-17T21:20:12.568Z,10.93
2022-08-17T21:25:29.505Z,10.40
2022-08-17T21:30:56.530Z,9.93
2022-08-17T21:36:27.807Z,9.55
2022-08-17T21:41:34.810Z,9.70
2022-08-17T21:46:43.016Z,9.60
2022-08-17T21:51:53.802Z,9.38
2022-08-17T21:56:57.162Z,13.57
2022-08-17T22:02:03.855Z,10.43
2022-08-17T22:07:09.441Z,10.45
2022-08-17T22:12:17.386Z,9.77
2022-08-17T22:17:23.844Z,9.77
2022-08-17T22:22:59.898Z,10.32
2022-08-17T22:28:05.568Z,9.50
2022-08-17T22:33:36.129Z,9.80
2022-08-17T22:38:40.589Z,9.95
2022-08-17T22:43:44.916Z,10.73
2022-08-17T22:48:51.779Z,10.40
2022-08-17T22:54:15.811Z,9.57
2022-08-17T22:59:40.482Z,9.70
2022-08-17T23:04:47.731Z,8.57
2022-08-17T23:09:53.248Z,8.57
2022-08-17T23:15:01.938Z,8.27
2022-08-17T23:20:09.178Z,8.73
2022-08-17T23:25:15.873Z,8.10
2022-08-17T23:30:19.222Z,8.43
2022-08-17T23:35:38.954Z,9.30
2022-08-17T23:40:44.180Z,8.43
2022-08-17T23:45:47.829Z,9.07
2022-08-17T23:50:55.392Z,9.65
2022-08-17T23:56:09.079Z,9.52
